Aeroporto :
LOGIN :

Iscrizione | Disclaimer

   EN    FR    IT 

 










Sommario :    VFR   VFR Marginale   IFR   IFR Intensivo   IFR Molto Intensivo
Visibilità : 
Base nubi : 
>= 8 km
>= 3000ft
5 / 8 km
1000 / 3000 ft
1500m / 5 km
500 / 1000 ft
800 / 1500m
200 / 500 ft
< 800m
< 200 ft
Simboli :   Temporali  Nebbia  Neve Forte  Precipitazioni Forti  Vento > 20 kt
SIGMETs :   Varie  Temporali  Ghiacco  Turbolenza  Onda orograficha  Ceneri Vulcaniche






- Altitudine del aeroporto : 296 ft
- Codice IATA : GKE


ETNG - Geilenkirchen

ULTIMO METAR :
  • 172250Z 21005KT CAVOK 14/12 Q1009

METARs OBSOLETI :
  • 172150Z 21004KT CAVOK 14/12 Q1009
  • 172050Z 22005KT CAVOK 14/13 Q1009
  • 171950Z 21004KT 9999 FEW035 BKN070 14/13 Q1009 NOSIG

TAF TAF ETNG
Valido dal 17 a 21 ore il 18 a 12 ore UTC


172000Z 1721/1812 20006KT 9999 SCT015 BKN035
PROB40
TEMPO 1721/1812 4500 RA SHRA BKN012 SCT020CB
BECMG 1808/1809 22015G25KT
PROB40
TEMPO 1809/1812 23018G32KT



MetMap, La meteo Aeronautica in un colpo d'occhio ! - Copyright ORBIFLY Dicembre 2007 - Disclaimer

ORBIFLY MET'MAP TEAM :

Programmazione e sviluppo : Alexandra Zaïnal
Concezione e sviluppo : Baudouin d'Aumeries
Co-Programmazione e sviluppo : Marc-Olivier Méhu
Supporto tecnico e logistico : Manuel Goepfert
Aiuto per la traduzione : Arnaldo La Scala

Contatto : metmap@orbifly.com




FONTI E CREDITI :

   NOAA